createdAt,value
2023-09-08T00:04:40.782Z,11.71
2023-09-08T00:09:42.793Z,11.66
2023-09-08T00:14:44.866Z,11.69
2023-09-08T00:19:47.018Z,11.68
2023-09-08T00:24:49.149Z,11.66
2023-09-08T00:29:51.218Z,11.74
2023-09-08T00:34:53.182Z,11.72
2023-09-08T00:39:55.152Z,11.66
2023-09-08T00:44:57.126Z,11.60
2023-09-08T00:49:59.155Z,11.66
2023-09-08T00:55:01.294Z,11.70
2023-09-08T01:00:03.612Z,11.70
2023-09-08T01:05:07.486Z,11.68
2023-09-08T01:10:09.752Z,11.74
2023-09-08T01:15:11.908Z,11.55
2023-09-08T01:20:22.086Z,11.52
2023-09-08T01:25:28.174Z,11.50
2023-09-08T01:30:30.514Z,11.48
2023-09-08T01:35:32.584Z,11.37
2023-09-08T01:40:34.592Z,11.20
2023-09-08T01:45:36.641Z,11.20
2023-09-08T01:50:38.713Z,11.13
2023-09-08T01:55:40.708Z,10.89
2023-09-08T02:00:42.752Z,10.83
2023-09-08T02:05:45.886Z,10.73
2023-09-08T02:10:48.005Z,10.80
2023-09-08T02:15:50.201Z,10.80
2023-09-08T02:20:52.427Z,10.83
2023-09-08T02:25:54.464Z,10.79
2023-09-08T02:30:56.530Z,10.75
2023-09-08T02:36:05.624Z,10.80
2023-09-08T02:41:07.690Z,10.84
2023-09-08T02:46:09.758Z,10.77
2023-09-08T02:51:11.816Z,10.76
2023-09-08T02:56:13.923Z,10.78
2023-09-08T03:01:17.076Z,10.86
2023-09-08T03:06:20.222Z,10.86
2023-09-08T03:11:22.225Z,10.86
2023-09-08T03:16:24.270Z,11.03
2023-09-08T03:21:26.485Z,11.15
2023-09-08T03:26:28.620Z,11.23
2023-09-08T03:31:30.812Z,11.13
2023-09-08T03:36:32.987Z,11.31
2023-09-08T03:41:35.104Z,11.43
2023-09-08T03:46:37.766Z,11.58
2023-09-08T03:51:39.961Z,11.83
2023-09-08T03:56:42.133Z,13.10
2023-09-08T04:01:44.140Z,13.47
2023-09-08T04:06:46.243Z,12.98
2023-09-08T04:11:48.381Z,12.88
2023-09-08T04:16:50.519Z,12.94
2023-09-08T04:21:52.576Z,12.80
2023-09-08T04:26:54.722Z,12.75
2023-09-08T04:31:56.827Z,12.88
2023-09-08T04:36:58.988Z,12.99
2023-09-08T04:42:01.230Z,12.85
2023-09-08T04:47:02.995Z,12.64
2023-09-08T04:52:05.357Z,12.42
2023-09-08T04:57:16.563Z,12.34
2023-09-08T05:02:24.398Z,12.53
2023-09-08T05:07:26.507Z,12.94
2023-09-08T05:12:28.494Z,12.95
2023-09-08T05:17:30.782Z,13.20
2023-09-08T05:22:32.814Z,12.99
2023-09-08T05:27:34.966Z,13.05
2023-09-08T05:32:37.243Z,12.99
2023-09-08T05:37:39.300Z,13.07
2023-09-08T05:42:43.052Z,13.03
2023-09-08T05:47:46.669Z,13.57
2023-09-08T05:52:48.753Z,13.30
2023-09-08T05:57:50.693Z,13.78
2023-09-08T06:02:52.727Z,14.29
2023-09-08T06:08:06.449Z,14.96
2023-09-08T06:13:09.292Z,15.29
2023-09-08T06:18:12.553Z,14.85
2023-09-08T06:23:15.319Z,17.79
2023-09-08T06:28:17.274Z,18.38
2023-09-08T06:33:19.391Z,16.20
2023-09-08T06:38:21.273Z,15.16
2023-09-08T06:43:23.137Z,14.51
2023-09-08T06:48:25.104Z,14.74
2023-09-08T06:53:27.165Z,16.02
2023-09-08T06:58:29.074Z,22.34
2023-09-08T07:03:31.082Z,28.73
2023-09-08T07:08:33.289Z,27.99
2023-09-08T07:13:35.503Z,25.84
2023-09-08T07:18:37.903Z,21.52
2023-09-08T07:23:40.202Z,21.00
2023-09-08T07:28:42.187Z,25.60
2023-09-08T07:33:44.228Z,28.18
2023-09-08T07:38:46.322Z,23.31
2023-09-08T07:43:49.827Z,20.73
2023-09-08T07:48:51.937Z,19.16
2023-09-08T07:53:57.022Z,18.37
2023-09-08T07:58:59.149Z,18.14
2023-09-08T08:04:01.231Z,18.31
2023-09-08T08:09:03.436Z,17.49
2023-09-08T08:14:05.740Z,17.49
2023-09-08T08:19:07.734Z,17.62
2023-09-08T08:24:09.765Z,17.17
2023-09-08T08:29:11.887Z,16.58
2023-09-08T08:34:13.588Z,16.65
2023-09-08T08:39:15.476Z,16.64
2023-09-08T08:44:17.968Z,16.39
2023-09-08T08:49:19.950Z,16.19
2023-09-08T08:54:21.902Z,15.92
2023-09-08T08:59:24.235Z,16.13
2023-09-08T09:04:26.633Z,16.34
2023-09-08T09:09:28.598Z,16.44
2023-09-08T09:14:34.335Z,16.26
2023-09-08T09:19:36.312Z,16.63
2023-09-08T09:24:41.852Z,16.61
2023-09-08T09:29:49.960Z,16.46
2023-09-08T09:34:53.440Z,16.28
2023-09-08T09:39:56.136Z,16.70
2023-09-08T09:44:58.096Z,16.05
2023-09-08T09:50:00.186Z,15.74
2023-09-08T09:55:02.194Z,15.35
2023-09-08T10:00:06.053Z,14.98
2023-09-08T10:05:14.664Z,14.82
2023-09-08T10:10:17.112Z,14.85
2023-09-08T10:15:21.093Z,14.73
2023-09-08T10:20:24.522Z,14.90
2023-09-08T10:25:26.560Z,15.13
2023-09-08T10:30:28.518Z,15.46
2023-09-08T10:35:30.524Z,15.60
2023-09-08T10:40:32.611Z,15.79
2023-09-08T10:45:34.576Z,16.04
2023-09-08T10:50:36.945Z,15.70
2023-09-08T10:55:41.648Z,15.50
2023-09-08T11:00:45.196Z,15.26
2023-09-08T11:05:47.670Z,15.38
2023-09-08T11:10:50.034Z,15.10
2023-09-08T11:15:55.832Z,14.45
2023-09-08T11:20:58.301Z,13.86
2023-09-08T11:26:00.732Z,13.67
2023-09-08T11:31:02.786Z,13.80
2023-09-08T11:36:12.652Z,14.06
2023-09-08T11:41:14.665Z,14.40
2023-09-08T11:46:16.869Z,15.09
2023-09-08T11:51:23.633Z,15.21
2023-09-08T11:56:26.237Z,15.39
2023-09-08T12:01:28.278Z,15.19
2023-09-08T12:06:30.583Z,15.26
2023-09-08T12:11:36.050Z,15.68
2023-09-08T12:16:38.181Z,15.46
2023-09-08T12:22:00.211Z,14.94
2023-09-08T12:27:04.511Z,14.50
2023-09-08T12:32:06.710Z,14.42
2023-09-08T12:37:08.518Z,14.29
2023-09-08T12:42:10.614Z,14.40
2023-09-08T12:47:12.829Z,14.24
2023-09-08T12:52:14.991Z,14.07
2023-09-08T12:57:16.975Z,14.01
2023-09-08T13:02:18.915Z,13.94
2023-09-08T13:07:21.382Z,13.70
2023-09-08T13:12:23.415Z,13.64
2023-09-08T13:17:25.456Z,13.89
2023-09-08T13:22:27.563Z,14.06
2023-09-08T13:27:29.543Z,13.99
2023-09-08T13:32:31.729Z,13.81
2023-09-08T13:37:33.873Z,13.98
2023-09-08T13:42:36.104Z,13.75
2023-09-08T13:47:38.416Z,13.80
2023-09-08T13:52:43.769Z,13.69
2023-09-08T13:57:48.786Z,13.67
2023-09-08T14:02:53.197Z,13.61
2023-09-08T14:08:06.934Z,13.52
2023-09-08T14:13:10.862Z,13.43
2023-09-08T14:18:13.210Z,13.10
2023-09-08T14:23:14.972Z,13.05
2023-09-08T14:28:16.818Z,12.94
2023-09-08T14:33:18.984Z,12.93
2023-09-08T14:38:21.633Z,12.90
2023-09-08T14:43:24.027Z,12.73
2023-09-08T14:48:26.089Z,12.63
2023-09-08T14:53:28.259Z,12.59
2023-09-08T14:58:30.780Z,12.53
2023-09-08T15:03:33.173Z,12.51
2023-09-08T15:08:35.358Z,12.45
2023-09-08T15:13:37.948Z,12.45
2023-09-08T15:18:40.287Z,12.43
2023-09-08T15:23:42.320Z,12.31
2023-09-08T15:28:44.534Z,12.09
2023-09-08T15:33:46.752Z,11.95
2023-09-08T15:38:49.032Z,11.75
2023-09-08T15:43:51.897Z,11.73
2023-09-08T15:48:54.046Z,11.53
2023-09-08T15:53:56.107Z,11.37
2023-09-08T15:58:59.085Z,11.25
2023-09-08T16:04:01.318Z,10.99
2023-09-08T16:09:05.895Z,11.09
2023-09-08T16:14:09.178Z,11.13
2023-09-08T16:19:11.165Z,11.11
2023-09-08T16:24:13.289Z,11.15
2023-09-08T16:29:15.292Z,11.23
2023-09-08T16:34:17.297Z,10.99
2023-09-08T16:39:19.516Z,11.12
2023-09-08T16:44:21.530Z,11.11
2023-09-08T16:49:23.523Z,11.00
2023-09-08T16:54:25.465Z,10.96
2023-09-08T16:59:27.480Z,10.93
2023-09-08T17:04:29.735Z,10.77
2023-09-08T17:09:31.944Z,10.60
2023-09-08T17:14:34.775Z,10.69
2023-09-08T17:19:36.840Z,10.65
2023-09-08T17:24:38.918Z,10.82
2023-09-08T17:29:40.908Z,10.75
2023-09-08T17:34:42.931Z,10.62
2023-09-08T17:39:44.961Z,10.54
2023-09-08T17:44:47.115Z,10.55
2023-09-08T17:49:49.343Z,10.32
2023-09-08T17:54:51.415Z,10.26
2023-09-08T17:59:53.489Z,10.19
2023-09-08T18:04:55.750Z,9.95
2023-09-08T18:09:57.864Z,9.91
2023-09-08T18:15:00.003Z,9.85
2023-09-08T18:20:02.074Z,9.90
2023-09-08T18:25:06.834Z,10.16
2023-09-08T18:30:09.420Z,10.20
2023-09-08T18:35:11.374Z,10.00
2023-09-08T18:40:13.874Z,10.13
2023-09-08T18:45:15.854Z,9.93
2023-09-08T18:50:17.989Z,9.90
2023-09-08T18:55:19.990Z,9.84
2023-09-08T19:00:22.006Z,9.80
2023-09-08T19:05:24.247Z,9.87
2023-09-08T19:10:26.389Z,9.88
2023-09-08T19:15:28.383Z,9.80
2023-09-08T19:20:30.709Z,9.82
2023-09-08T19:25:32.702Z,9.71
2023-09-08T19:30:34.593Z,9.79
2023-09-08T19:35:36.724Z,9.75
2023-09-08T19:40:38.696Z,9.67
2023-09-08T19:45:40.706Z,9.68
2023-09-08T19:50:45.082Z,9.71
2023-09-08T19:55:47.133Z,9.66
2023-09-08T20:00:49.617Z,9.65
2023-09-08T20:05:51.385Z,9.55
2023-09-08T20:10:53.833Z,9.66
2023-09-08T20:16:00.419Z,9.66
2023-09-08T20:21:02.876Z,9.66
2023-09-08T20:26:05.353Z,9.68
2023-09-08T20:31:16.229Z,9.64
2023-09-08T20:36:19.656Z,9.66
2023-09-08T20:41:21.813Z,9.66
2023-09-08T20:46:23.901Z,9.74
2023-09-08T20:51:25.947Z,9.75
2023-09-08T20:56:28.056Z,9.82
2023-09-08T21:01:30.154Z,9.84
2023-09-08T21:06:32.259Z,9.87
2023-09-08T21:11:34.378Z,9.88
2023-09-08T21:16:36.386Z,9.84
2023-09-08T21:21:38.497Z,9.82
2023-09-08T21:26:40.606Z,9.82
2023-09-08T21:31:42.580Z,9.71
2023-09-08T21:36:44.823Z,9.70
2023-09-08T21:41:46.894Z,9.77
2023-09-08T21:46:49.024Z,9.88
2023-09-08T21:51:51.113Z,9.78
2023-09-08T21:56:53.466Z,9.83
2023-09-08T22:01:55.759Z,9.83
2023-09-08T22:06:57.882Z,9.82
2023-09-08T22:11:59.988Z,9.85
2023-09-08T22:17:02.208Z,9.80
2023-09-08T22:22:04.502Z,9.78
2023-09-08T22:27:07.332Z,9.76
2023-09-08T22:32:09.363Z,9.77
2023-09-08T22:37:11.278Z,9.72
2023-09-08T22:42:13.427Z,9.72
2023-09-08T22:47:15.397Z,9.70
2023-09-08T22:52:17.510Z,9.73
2023-09-08T22:57:19.624Z,9.72
2023-09-08T23:02:21.808Z,9.64
2023-09-08T23:07:24.062Z,9.60
2023-09-08T23:12:26.078Z,9.53
2023-09-08T23:17:28.237Z,9.50
2023-09-08T23:22:30.330Z,9.41
2023-09-08T23:27:32.445Z,9.37
2023-09-08T23:32:34.603Z,9.37
2023-09-08T23:37:36.859Z,9.34
2023-09-08T23:42:39.604Z,9.29
2023-09-08T23:47:41.663Z,9.32
2023-09-08T23:52:43.709Z,9.40
2023-09-08T23:57:45.750Z,9.40
